ΑΕΡΟΝΑΥΤΙΛΙΑ

ΚΩΔΙΚΕΣ ΕΛΛΗΝΙΚΩΝ ΑΕΡΟΔΡΟΜΙΩΝ

TAF LGSR 282300Z 2900/2924 27015KT 9999 FEW020 SCT025 TEMPO 2900/2905 27015G25KT PROB40 TEMPO 2900/2915 5000 SHRA SCT015 FEW018CB BKN020=

ΚΩΔΙΚΕΣ ΕΥΡΩΠΑΪΚΩΝ ΑΕΡΟΔΡΟΜΙΩΝ

LFPO 290000Z AUTO 03017KT 360V060 9999 OVC022 07/02 Q1025BECMG 02015G30KT=